createdAt,value
2018-12-04T00:00:58.876Z,32.70
2018-12-04T00:03:25.721Z,34.47
2018-12-04T00:05:52.576Z,33.43
2018-12-04T00:08:19.554Z,35.23
2018-12-04T00:10:46.474Z,32.83
2018-12-04T00:14:10.870Z,34.03
2018-12-04T00:19:48.300Z,32.43
2018-12-04T00:22:15.060Z,30.77
2018-12-04T00:24:41.852Z,31.83
2018-12-04T00:27:08.566Z,34.07
2018-12-04T00:29:35.323Z,34.97
2018-12-04T00:32:02.195Z,34.97
2018-12-04T00:34:28.967Z,33.90
2018-12-04T00:36:55.727Z,32.20
2018-12-04T00:39:22.443Z,30.37
2018-12-04T00:41:49.350Z,28.47
2018-12-04T00:44:16.111Z,27.10
2018-12-04T00:46:42.841Z,27.73
2018-12-04T00:49:09.593Z,25.83
2018-12-04T00:51:36.567Z,25.43
2018-12-04T00:54:03.421Z,24.90
2018-12-04T00:56:30.162Z,26.00
2018-12-04T00:58:57.005Z,24.87
2018-12-04T01:01:23.715Z,25.60
2018-12-04T01:03:50.580Z,25.43
2018-12-04T01:06:17.394Z,25.80
2018-12-04T01:08:44.133Z,26.70
2018-12-04T01:11:10.831Z,26.47
2018-12-04T01:13:37.851Z,26.53
2018-12-04T01:16:04.571Z,26.00
2018-12-04T01:18:31.512Z,27.13
2018-12-04T01:20:58.263Z,26.37
2018-12-04T01:23:24.994Z,25.20
2018-12-04T01:25:51.695Z,24.90
2018-12-04T01:28:18.477Z,21.37
2018-12-04T01:30:45.194Z,23.37
2018-12-04T01:33:11.955Z,22.00
2018-12-04T01:35:43.693Z,23.17
2018-12-04T01:38:10.416Z,21.63
2018-12-04T01:40:37.139Z,22.17
2018-12-04T01:43:03.895Z,22.40
2018-12-04T01:45:30.715Z,20.47
2018-12-04T01:47:57.557Z,19.23
2018-12-04T01:50:24.302Z,19.50
2018-12-04T01:52:51.004Z,19.63
2018-12-04T01:55:17.731Z,18.13
2018-12-04T01:57:44.562Z,18.17
2018-12-04T02:00:11.433Z,18.00
2018-12-04T02:02:38.147Z,16.57
2018-12-04T02:05:05.041Z,18.10
2018-12-04T02:07:31.758Z,17.53
2018-12-04T02:09:58.469Z,17.33
2018-12-04T02:12:25.223Z,17.33
2018-12-04T02:14:51.950Z,16.73
2018-12-04T02:17:18.658Z,16.10
2018-12-04T02:19:45.410Z,15.93
2018-12-04T02:22:12.235Z,18.17
2018-12-04T02:24:38.980Z,15.83
2018-12-04T02:27:05.750Z,15.13
2018-12-04T02:29:32.571Z,15.33
2018-12-04T02:31:59.296Z,14.13
2018-12-04T02:34:26.065Z,14.10
2018-12-04T02:36:52.856Z,13.93
2018-12-04T02:39:19.630Z,15.57
2018-12-04T02:41:46.383Z,15.03
2018-12-04T02:44:13.083Z,15.10
2018-12-04T02:46:39.799Z,15.97
2018-12-04T02:49:06.560Z,15.53
2018-12-04T02:51:33.248Z,15.20
2018-12-04T02:53:59.936Z,15.57
2018-12-04T02:56:26.740Z,14.90
2018-12-04T02:58:53.439Z,14.97
2018-12-04T03:01:20.176Z,13.60
2018-12-04T03:03:47.036Z,14.40
2018-12-04T03:06:13.734Z,14.73
2018-12-04T03:08:40.437Z,15.13
2018-12-04T03:11:07.171Z,15.50
2018-12-04T03:13:33.878Z,15.43
2018-12-04T03:16:00.562Z,14.53
2018-12-04T03:18:27.532Z,14.00
2018-12-04T03:20:54.217Z,13.70
2018-12-04T03:23:20.909Z,12.97
2018-12-04T03:25:47.673Z,14.40
2018-12-04T03:28:14.397Z,17.43
2018-12-04T03:30:41.101Z,21.10
2018-12-04T03:33:07.897Z,18.50
2018-12-04T03:35:34.579Z,18.03
2018-12-04T03:40:34.389Z,17.17
2018-12-04T03:43:01.196Z,19.13
2018-12-04T03:45:27.930Z,18.87
2018-12-04T03:47:54.674Z,18.87
2018-12-04T03:50:21.352Z,19.30
2018-12-04T03:52:48.365Z,19.20
2018-12-04T03:55:15.116Z,19.87
2018-12-04T03:57:41.796Z,18.97
2018-12-04T04:00:08.814Z,20.20
2018-12-04T04:02:35.570Z,21.03
2018-12-04T04:05:02.262Z,19.47
2018-12-04T04:07:28.942Z,20.23
2018-12-04T04:09:55.686Z,21.10
2018-12-04T04:12:22.535Z,19.60
2018-12-04T04:14:49.302Z,19.87
2018-12-04T04:17:16.049Z,20.23
2018-12-04T04:19:42.735Z,20.10
2018-12-04T04:22:09.966Z,21.27
2018-12-04T04:24:36.741Z,20.83
2018-12-04T04:27:03.450Z,21.20
2018-12-04T04:29:30.162Z,22.87
2018-12-04T04:31:57.122Z,23.57
2018-12-04T04:34:23.851Z,23.67
2018-12-04T04:36:50.559Z,24.10
2018-12-04T04:39:17.356Z,23.83
2018-12-04T04:41:44.076Z,23.67
2018-12-04T04:44:11.120Z,22.93
2018-12-04T04:46:37.882Z,25.10
2018-12-04T04:49:04.684Z,24.63
2018-12-04T04:51:31.394Z,20.80
2018-12-04T04:53:58.145Z,22.57
2018-12-04T04:56:24.849Z,21.67
2018-12-04T04:58:51.703Z,22.13
2018-12-04T05:01:18.453Z,22.77
2018-12-04T05:03:45.164Z,22.07
2018-12-04T05:06:11.895Z,20.97
2018-12-04T05:08:38.649Z,21.60
2018-12-04T05:11:05.367Z,20.60
2018-12-04T05:13:32.209Z,22.33
2018-12-04T05:15:58.965Z,21.20
2018-12-04T05:18:25.677Z,20.73
2018-12-04T05:20:52.449Z,23.03
2018-12-04T05:23:19.201Z,22.80
2018-12-04T05:25:45.921Z,21.70
2018-12-04T05:28:12.636Z,21.80
2018-12-04T05:30:39.541Z,21.90
2018-12-04T05:33:06.259Z,19.27
2018-12-04T05:35:32.979Z,19.83
2018-12-04T05:37:59.721Z,20.40
2018-12-04T05:40:26.439Z,19.47
2018-12-04T05:42:53.155Z,20.17
2018-12-04T05:45:25.842Z,21.57
2018-12-04T05:47:52.548Z,19.73
2018-12-04T05:50:19.365Z,20.63
2018-12-04T05:52:48.177Z,21.50
2018-12-04T05:55:15.024Z,22.10
2018-12-04T05:57:41.868Z,20.17
2018-12-04T06:00:08.859Z,22.40
2018-12-04T06:02:35.694Z,22.13
2018-12-04T06:05:02.433Z,22.17
2018-12-04T06:07:29.893Z,21.13
2018-12-04T06:09:56.748Z,22.50
2018-12-04T06:18:18.441Z,22.50
2018-12-04T06:20:45.254Z,22.37
2018-12-04T06:23:11.966Z,23.33
2018-12-04T06:25:38.671Z,24.07
2018-12-04T06:28:05.429Z,22.93
2018-12-04T06:30:32.623Z,24.13
2018-12-04T06:32:59.403Z,24.87
2018-12-04T06:35:26.150Z,24.23
2018-12-04T06:37:52.884Z,25.17
2018-12-04T06:40:20.082Z,23.97
2018-12-04T06:42:46.851Z,22.87
2018-12-04T06:45:13.568Z,23.47
2018-12-04T06:47:40.278Z,25.07
2018-12-04T06:50:08.474Z,24.40
2018-12-04T06:52:35.193Z,24.97
2018-12-04T06:55:01.916Z,23.13
2018-12-04T06:57:28.679Z,23.73
2018-12-04T06:59:55.391Z,25.17
2018-12-04T07:02:22.425Z,23.37
2018-12-04T07:04:49.963Z,24.37
2018-12-04T07:07:16.721Z,22.83
2018-12-04T07:09:43.559Z,23.23
2018-12-04T07:12:10.320Z,24.47
2018-12-04T07:14:37.032Z,23.20
2018-12-04T07:17:03.759Z,23.93
2018-12-04T07:19:30.575Z,24.03
2018-12-04T07:21:57.623Z,23.97
2018-12-04T07:24:24.439Z,24.10
2018-12-04T07:26:51.190Z,24.43
2018-12-04T07:29:18.141Z,24.00
2018-12-04T07:31:44.858Z,25.47
2018-12-04T07:34:11.605Z,26.27
2018-12-04T07:36:38.365Z,25.60
2018-12-04T07:39:06.037Z,25.27
2018-12-04T07:41:32.942Z,28.50
2018-12-04T07:43:59.648Z,27.83
2018-12-04T07:46:26.571Z,28.90
2018-12-04T07:48:53.519Z,28.80
2018-12-04T07:51:20.274Z,28.67
2018-12-04T07:53:46.991Z,29.70
2018-12-04T07:56:13.769Z,27.97
2018-12-04T07:58:40.571Z,29.57
2018-12-04T08:01:07.296Z,29.27
2018-12-04T08:03:34.288Z,30.37
2018-12-04T08:06:03.007Z,30.70
2018-12-04T08:08:29.722Z,31.33
2018-12-04T08:10:56.477Z,32.77
2018-12-04T08:13:23.357Z,30.90
2018-12-04T08:15:50.066Z,33.80
2018-12-04T08:18:16.831Z,32.37
2018-12-04T08:20:43.539Z,32.20
2018-12-04T08:23:10.448Z,34.53
2018-12-04T08:25:37.317Z,34.90
2018-12-04T08:28:04.057Z,36.20
2018-12-04T08:30:30.934Z,38.50
2018-12-04T08:32:57.908Z,37.77
2018-12-04T08:35:24.615Z,38.87
2018-12-04T08:37:51.334Z,37.80
2018-12-04T08:40:18.104Z,39.37
2018-12-04T08:42:44.850Z,38.23
2018-12-04T08:45:11.651Z,39.20
2018-12-04T08:47:38.418Z,39.17
2018-12-04T08:50:05.453Z,38.00
2018-12-04T08:52:32.185Z,39.00
2018-12-04T08:54:58.947Z,38.90
2018-12-04T08:57:25.664Z,39.37
2018-12-04T08:59:52.387Z,35.73
2018-12-04T09:02:19.145Z,36.97
2018-12-04T09:04:45.989Z,36.20
2018-12-04T09:07:12.698Z,38.40
2018-12-04T09:09:39.469Z,35.57
2018-12-04T09:12:06.395Z,35.20
2018-12-04T09:14:38.154Z,36.10
2018-12-04T09:17:02.319Z,35.30
2018-12-04T09:19:29.066Z,35.80
2018-12-04T09:21:55.856Z,35.10
2018-12-04T09:24:22.856Z,35.63
2018-12-04T09:26:49.955Z,35.33
2018-12-04T09:29:16.690Z,34.70
2018-12-04T09:31:43.593Z,37.83
2018-12-04T09:34:10.309Z,37.53
2018-12-04T09:36:37.019Z,37.37
2018-12-04T09:39:05.221Z,38.70
2018-12-04T09:41:32.053Z,39.20
2018-12-04T09:43:58.771Z,38.53
2018-12-04T09:46:25.537Z,42.37
2018-12-04T09:48:52.292Z,45.03
2018-12-04T09:51:19.024Z,42.20
2018-12-04T09:53:45.835Z,44.80
2018-12-04T09:56:12.554Z,43.70
2018-12-04T09:58:39.265Z,42.87
2018-12-04T10:01:06.033Z,41.43
2018-12-04T10:03:32.873Z,39.67
2018-12-04T10:05:59.603Z,39.33
2018-12-04T10:08:26.348Z,36.83
2018-12-04T10:10:53.058Z,39.77
2018-12-04T10:13:19.788Z,38.40
2018-12-04T10:15:46.662Z,38.23
2018-12-04T10:18:13.363Z,39.97
2018-12-04T10:20:40.073Z,36.47
2018-12-04T10:23:06.840Z,40.47
2018-12-04T10:25:33.715Z,39.70
2018-12-04T10:28:01.048Z,39.30
2018-12-04T10:30:27.997Z,40.47
2018-12-04T10:32:54.712Z,39.43
2018-12-04T10:35:21.439Z,40.53
2018-12-04T10:37:48.187Z,41.37
2018-12-04T10:40:14.924Z,40.57
2018-12-04T10:42:41.654Z,41.23
2018-12-04T10:45:08.410Z,39.07
2018-12-04T10:47:35.244Z,37.90
2018-12-04T10:50:02.083Z,36.67
2018-12-04T10:52:28.822Z,37.17
2018-12-04T10:54:55.638Z,34.30
2018-12-04T10:57:22.338Z,36.37
2018-12-04T10:59:49.186Z,36.17
2018-12-04T11:02:21.687Z,38.80
2018-12-04T11:04:48.550Z,38.73
2018-12-04T11:07:15.360Z,38.47
2018-12-04T11:09:42.563Z,39.43
2018-12-04T11:12:12.230Z,38.53
2018-12-04T11:14:38.071Z,37.00
2018-12-04T11:17:04.782Z,35.97
2018-12-04T11:19:31.642Z,37.47
2018-12-04T11:21:58.397Z,36.53
2018-12-04T11:24:25.126Z,33.70
2018-12-04T11:26:52.485Z,36.17
2018-12-04T11:29:19.344Z,34.53
2018-12-04T11:31:46.408Z,36.23
2018-12-04T11:34:13.135Z,33.93
2018-12-04T11:36:39.891Z,33.73
2018-12-04T11:39:06.936Z,34.17
2018-12-04T11:41:33.847Z,33.90
2018-12-04T11:44:00.613Z,35.37
2018-12-04T11:46:27.564Z,34.17
2018-12-04T11:48:54.277Z,35.33
2018-12-04T11:51:21.015Z,37.93
2018-12-04T11:53:47.750Z,37.67
2018-12-04T11:56:14.452Z,37.50
2018-12-04T11:58:41.249Z,38.03
2018-12-04T12:01:08.389Z,35.07
2018-12-04T12:03:35.330Z,31.97
2018-12-04T12:06:02.115Z,32.47
2018-12-04T12:08:28.848Z,29.57
2018-12-04T12:10:55.757Z,32.97
2018-12-04T12:13:22.538Z,30.73
2018-12-04T12:15:49.242Z,26.53
2018-12-04T12:18:16.085Z,25.40
2018-12-04T12:20:42.868Z,20.93
2018-12-04T12:23:09.587Z,23.47
2018-12-04T12:25:36.315Z,20.30
2018-12-04T12:28:03.195Z,19.00
2018-12-04T12:30:29.906Z,22.23
2018-12-04T12:32:56.634Z,18.87
2018-12-04T12:35:23.582Z,18.53
2018-12-04T12:37:50.312Z,22.20
2018-12-04T12:40:17.058Z,17.60
2018-12-04T12:42:43.809Z,22.53
2018-12-04T12:45:10.521Z,18.27
2018-12-04T12:47:37.233Z,25.67
2018-12-04T12:50:04.424Z,24.27
2018-12-04T12:52:31.133Z,21.27
2018-12-04T12:54:58.062Z,15.30
2018-12-04T12:57:24.859Z,16.10
2018-12-04T12:59:51.676Z,16.70
2018-12-04T13:02:18.376Z,17.83
2018-12-04T13:04:45.131Z,9.73
2018-12-04T13:07:12.062Z,15.33
2018-12-04T13:09:39.366Z,11.67
2018-12-04T13:12:06.326Z,5.60
2018-12-04T13:14:33.398Z,5.97
2018-12-04T13:17:00.180Z,4.57
2018-12-04T13:19:27.545Z,4.63
2018-12-04T13:21:54.328Z,6.20
2018-12-04T13:24:21.057Z,5.83
2018-12-04T13:26:48.235Z,5.07
2018-12-04T13:29:15.095Z,5.07
2018-12-04T13:31:41.808Z,10.00
2018-12-04T13:34:08.579Z,14.80
2018-12-04T13:36:35.340Z,12.83
2018-12-04T13:39:02.077Z,5.60
2018-12-04T13:41:28.846Z,6.37
2018-12-04T13:43:55.575Z,9.43
2018-12-04T13:46:22.316Z,10.20
2018-12-04T13:48:49.195Z,8.43
2018-12-04T13:51:15.915Z,8.13
2018-12-04T13:53:42.702Z,10.67
2018-12-04T13:56:09.597Z,10.83
2018-12-04T13:58:36.434Z,14.00
2018-12-04T14:01:03.135Z,9.80
2018-12-04T14:03:29.885Z,11.37
2018-12-04T14:05:56.756Z,10.23
2018-12-04T14:08:23.631Z,9.77
2018-12-04T14:10:50.385Z,9.97
2018-12-04T14:13:17.319Z,13.37
2018-12-04T14:15:44.042Z,22.33
2018-12-04T14:18:10.887Z,12.13
2018-12-04T14:20:37.634Z,10.67
2018-12-04T14:23:04.477Z,9.80
2018-12-04T14:25:31.380Z,12.23
2018-12-04T14:27:58.571Z,8.20
2018-12-04T14:30:25.443Z,10.40
2018-12-04T14:32:52.243Z,15.47
2018-12-04T14:35:19.048Z,19.93
2018-12-04T14:37:45.759Z,18.90
2018-12-04T14:40:12.772Z,12.23
2018-12-04T14:42:39.691Z,13.10
2018-12-04T14:45:06.425Z,8.03
2018-12-04T14:47:33.197Z,9.47
2018-12-04T14:49:59.908Z,6.10
2018-12-04T14:52:26.631Z,10.77
2018-12-04T14:54:53.402Z,7.00
2018-12-04T14:57:20.144Z,6.70
2018-12-04T14:59:46.864Z,10.40
2018-12-04T15:02:13.640Z,14.27
2018-12-04T15:04:40.345Z,13.60
2018-12-04T15:07:07.069Z,10.80
2018-12-04T15:09:33.840Z,10.97
2018-12-04T15:12:00.725Z,21.47
2018-12-04T15:14:27.671Z,11.13
2018-12-04T15:16:55.150Z,9.73
2018-12-04T15:19:22.700Z,11.00
2018-12-04T15:21:49.439Z,13.27
2018-12-04T15:24:16.232Z,15.93
2018-12-04T15:26:43.200Z,18.90
2018-12-04T15:29:10.037Z,21.17
2018-12-04T15:31:37.089Z,19.57
2018-12-04T15:34:04.029Z,19.33
2018-12-04T15:36:30.847Z,17.07
2018-12-04T15:38:57.748Z,18.17
2018-12-04T15:41:24.490Z,18.50
2018-12-04T15:43:51.338Z,16.43
2018-12-04T15:46:18.235Z,16.10
2018-12-04T15:48:45.102Z,13.87
2018-12-04T15:51:11.941Z,16.20
2018-12-04T15:53:38.792Z,20.73
2018-12-04T15:56:05.575Z,20.10
2018-12-04T15:58:32.281Z,17.33
2018-12-04T16:00:59.937Z,20.23
2018-12-04T16:03:26.925Z,20.53
2018-12-04T16:05:53.724Z,16.37
2018-12-04T16:08:20.551Z,16.27
2018-12-04T16:10:47.264Z,20.83
2018-12-04T16:13:14.694Z,19.23
2018-12-04T16:15:41.530Z,16.50
2018-12-04T16:18:08.263Z,14.37
2018-12-04T16:20:34.991Z,16.97
2018-12-04T16:23:01.760Z,16.37
2018-12-04T16:25:28.476Z,17.17
2018-12-04T16:27:55.192Z,16.73
2018-12-04T16:30:22.059Z,15.77
2018-12-04T16:32:48.799Z,15.93
2018-12-04T16:35:15.553Z,15.70
2018-12-04T16:37:42.313Z,16.37
2018-12-04T16:40:09.128Z,14.27
2018-12-04T16:42:35.909Z,13.27
2018-12-04T16:45:02.709Z,17.07
2018-12-04T16:47:29.427Z,16.83
2018-12-04T16:49:56.296Z,19.33
2018-12-04T16:52:23.044Z,22.83
2018-12-04T16:54:49.906Z,25.70
2018-12-04T16:57:16.636Z,23.30
2018-12-04T16:59:43.400Z,25.70
2018-12-04T17:02:10.154Z,27.13
2018-12-04T17:04:36.918Z,31.60
2018-12-04T17:07:03.688Z,31.47
2018-12-04T17:09:30.427Z,35.77
2018-12-04T17:11:57.179Z,33.13
2018-12-04T17:14:24.206Z,38.60
2018-12-04T17:16:50.914Z,40.13
2018-12-04T17:19:17.738Z,37.17
2018-12-04T17:21:44.504Z,38.20
2018-12-04T17:24:11.469Z,37.40
2018-12-04T17:26:38.208Z,30.43
2018-12-04T17:29:05.182Z,31.73
2018-12-04T17:31:31.962Z,31.97
2018-12-04T17:33:58.687Z,27.43
2018-12-04T17:36:25.462Z,24.27
2018-12-04T17:38:52.178Z,29.73
2018-12-04T17:41:18.912Z,25.60
2018-12-04T17:43:51.572Z,30.87
2018-12-04T17:46:18.504Z,33.33
2018-12-04T17:48:45.241Z,31.43
2018-12-04T17:51:12.713Z,28.60
2018-12-04T17:53:39.452Z,27.97
2018-12-04T17:56:06.165Z,30.03
2018-12-04T17:58:32.953Z,33.67
2018-12-04T18:00:59.765Z,32.70
2018-12-04T18:03:26.650Z,33.57
2018-12-04T18:05:53.423Z,28.40
2018-12-04T18:08:20.253Z,29.33
2018-12-04T18:10:46.965Z,29.07
2018-12-04T18:13:14.060Z,33.23
2018-12-04T18:15:40.795Z,36.50
2018-12-04T18:18:07.654Z,33.03
2018-12-04T18:20:34.522Z,34.90
2018-12-04T18:23:01.244Z,29.97
2018-12-04T18:25:27.968Z,28.70
2018-12-04T18:27:54.733Z,27.83
2018-12-04T18:30:21.727Z,31.20
2018-12-04T18:32:48.471Z,32.80
2018-12-04T18:35:15.616Z,33.50
2018-12-04T18:37:42.359Z,33.23
2018-12-04T18:40:09.091Z,34.73
2018-12-04T18:42:35.863Z,38.50
2018-12-04T18:45:02.569Z,37.97
2018-12-04T18:47:29.481Z,38.10
2018-12-04T18:49:56.267Z,35.83
2018-12-04T18:52:23.890Z,37.03
2018-12-04T18:54:50.901Z,35.60
2018-12-04T18:57:17.975Z,35.13
2018-12-04T18:59:44.721Z,34.50
2018-12-04T19:02:11.564Z,34.77
2018-12-04T19:04:38.328Z,34.90
2018-12-04T19:07:05.093Z,33.40
2018-12-04T19:09:31.812Z,39.53
2018-12-04T19:11:58.771Z,38.97
2018-12-04T19:14:25.490Z,39.53
2018-12-04T19:16:52.206Z,38.13
2018-12-04T19:19:19.254Z,36.17
2018-12-04T19:21:46.031Z,36.57
2018-12-04T19:24:12.771Z,37.60
2018-12-04T19:26:39.651Z,36.33
2018-12-04T19:29:06.445Z,37.27
2018-12-04T19:31:33.265Z,36.40
2018-12-04T19:34:01.276Z,36.30
2018-12-04T19:36:28.075Z,38.70
2018-12-04T19:38:54.913Z,38.77
2018-12-04T19:41:21.802Z,39.47
2018-12-04T19:43:48.521Z,37.87
2018-12-04T19:46:15.234Z,36.27
2018-12-04T19:48:42.183Z,34.40
2018-12-04T19:51:09.021Z,33.90
2018-12-04T19:53:35.751Z,34.37
2018-12-04T19:56:02.631Z,32.23
2018-12-04T19:58:29.399Z,34.47
2018-12-04T20:00:56.204Z,33.47
2018-12-04T20:03:23.057Z,38.27
2018-12-04T20:05:49.788Z,41.23
2018-12-04T20:08:16.531Z,40.90
2018-12-04T20:10:43.319Z,39.60
2018-12-04T20:13:10.059Z,39.47
2018-12-04T20:15:36.898Z,37.67
2018-12-04T20:18:03.679Z,39.47
2018-12-04T20:20:30.464Z,38.37
2018-12-04T20:22:57.185Z,39.47
2018-12-04T20:25:24.387Z,41.30
2018-12-04T20:27:51.130Z,39.63
2018-12-04T20:30:18.049Z,38.60
2018-12-04T20:32:44.969Z,38.23
2018-12-04T20:35:11.690Z,40.90
2018-12-04T20:37:38.405Z,39.07
2018-12-04T20:40:05.271Z,35.83
2018-12-04T20:42:32.130Z,38.30
2018-12-04T20:44:58.837Z,43.03
2018-12-04T20:47:25.928Z,43.83
2018-12-04T20:49:52.666Z,45.67
2018-12-04T20:52:19.403Z,47.73
2018-12-04T20:54:46.178Z,48.37
2018-12-04T20:57:12.910Z,49.30
2018-12-04T20:59:39.639Z,49.93
2018-12-04T21:02:06.400Z,47.10
2018-12-04T21:04:33.218Z,43.23
2018-12-04T21:07:00.052Z,41.77
2018-12-04T21:09:27.247Z,43.67
2018-12-04T21:11:54.175Z,42.40
2018-12-04T21:14:20.910Z,42.20
2018-12-04T21:16:47.657Z,43.37
2018-12-04T21:19:14.386Z,42.30
2018-12-04T21:21:41.219Z,45.87
2018-12-04T21:24:07.993Z,44.47
2018-12-04T21:26:36.948Z,49.67
2018-12-04T21:29:09.417Z,53.40
2018-12-04T21:31:42.035Z,52.13
2018-12-04T21:34:14.556Z,46.70
2018-12-04T21:36:47.018Z,47.13
2018-12-04T21:39:15.974Z,41.73
2018-12-04T21:41:48.436Z,35.33
2018-12-04T21:44:21.034Z,33.87
2018-12-04T21:46:53.493Z,37.37
2018-12-04T21:49:20.221Z,38.63
2018-12-04T21:51:46.973Z,31.47
2018-12-04T21:54:18.203Z,29.80
2018-12-04T21:56:44.932Z,26.07
2018-12-04T21:59:11.870Z,25.13
2018-12-04T22:01:38.596Z,22.70
2018-12-04T22:04:05.305Z,23.97
2018-12-04T22:06:32.358Z,21.70
2018-12-04T22:08:59.102Z,27.60
2018-12-04T22:11:25.919Z,25.10
2018-12-04T22:13:52.759Z,28.40
2018-12-04T22:16:19.474Z,24.03
2018-12-04T22:18:46.263Z,27.57
2018-12-04T22:21:13.129Z,22.87
2018-12-04T22:23:39.853Z,23.83
2018-12-04T22:26:06.580Z,24.17
2018-12-04T22:28:33.656Z,23.97
2018-12-04T22:31:00.360Z,25.07
2018-12-04T22:33:27.081Z,22.73
2018-12-04T22:35:54.176Z,23.40
2018-12-04T22:38:20.973Z,26.23
2018-12-04T22:40:47.680Z,19.17
2018-12-04T22:43:14.440Z,19.47
2018-12-04T22:45:41.195Z,18.53
2018-12-04T22:48:07.908Z,20.17
2018-12-04T22:50:34.915Z,20.33
2018-12-04T22:53:01.644Z,18.73
2018-12-04T22:55:28.482Z,18.30
2018-12-04T22:57:55.257Z,15.70
2018-12-04T23:00:23.175Z,16.13
2018-12-04T23:02:49.882Z,15.70
2018-12-04T23:05:16.644Z,15.80
2018-12-04T23:07:43.360Z,15.27
2018-12-04T23:10:10.331Z,14.60
2018-12-04T23:12:37.424Z,16.40
2018-12-04T23:15:04.742Z,15.57
2018-12-04T23:17:31.459Z,15.53
2018-12-04T23:19:58.274Z,16.70
2018-12-04T23:22:25.099Z,16.70
2018-12-04T23:24:51.851Z,18.73
2018-12-04T23:27:18.619Z,20.63
2018-12-04T23:29:45.324Z,21.50
2018-12-04T23:32:12.039Z,21.53
2018-12-04T23:34:38.877Z,18.07
2018-12-04T23:37:05.771Z,17.57
2018-12-04T23:39:32.559Z,17.67
2018-12-04T23:41:59.337Z,17.47
2018-12-04T23:44:26.179Z,18.13
2018-12-04T23:46:52.897Z,17.43
2018-12-04T23:49:19.661Z,18.13
2018-12-04T23:51:46.466Z,19.57
2018-12-04T23:54:13.181Z,21.07
2018-12-04T23:56:40.401Z,20.00
2018-12-04T23:59:07.920Z,22.23
